createdAt,value
2022-12-04T00:01:48.848Z,60.0
2022-12-04T00:03:51.165Z,62.4
2022-12-04T00:05:47.737Z,61.5
2022-12-04T00:07:47.520Z,65.4
2022-12-04T00:09:46.594Z,65.3
2022-12-04T00:11:46.100Z,63.6
2022-12-04T00:13:46.369Z,62.8
2022-12-04T00:15:45.673Z,63.7
2022-12-04T00:17:46.391Z,63.0
2022-12-04T00:19:44.246Z,60.0
2022-12-04T00:21:44.256Z,66.7
2022-12-04T00:23:43.849Z,63.5
2022-12-04T00:25:47.581Z,61.8
2022-12-04T00:27:41.915Z,66.1
2022-12-04T00:29:41.526Z,63.0
2022-12-04T00:31:41.428Z,64.0
2022-12-04T00:33:41.193Z,62.9
2022-12-04T00:37:39.396Z,61.1
2022-12-04T00:39:38.807Z,63.9
2022-12-04T00:41:38.433Z,60.9
2022-12-04T00:43:38.260Z,63.4
2022-12-04T00:45:37.279Z,58.9
2022-12-04T00:47:36.706Z,58.9
2022-12-04T00:49:36.915Z,62.2
2022-12-04T00:51:36.366Z,61.0
2022-12-04T00:53:36.521Z,60.2
2022-12-04T00:55:36.823Z,61.6
2022-12-04T00:57:34.635Z,61.1
2022-12-04T00:59:33.697Z,60.4
2022-12-04T01:01:33.322Z,63.0
2022-12-04T01:03:33.603Z,62.0
2022-12-04T01:05:37.027Z,61.9
2022-12-04T01:07:31.856Z,58.3
2022-12-04T01:09:32.084Z,60.0
2022-12-04T01:11:31.997Z,59.0
2022-12-04T01:13:30.072Z,57.9
2022-12-04T01:15:29.834Z,57.5
2022-12-04T01:17:29.264Z,58.0
2022-12-04T01:19:28.566Z,58.4
2022-12-04T01:21:28.057Z,61.7
2022-12-04T01:23:27.439Z,62.5
2022-12-04T01:25:27.705Z,61.3
2022-12-04T01:27:26.861Z,62.5
2022-12-04T01:29:26.044Z,58.0
2022-12-04T01:31:25.575Z,58.9
2022-12-04T01:33:25.533Z,57.2
2022-12-04T01:35:24.436Z,60.9
2022-12-04T01:37:23.786Z,61.4
2022-12-04T01:39:23.304Z,64.2
2022-12-04T01:41:26.448Z,63.3
2022-12-04T01:43:23.837Z,58.3
2022-12-04T01:45:40.452Z,57.8
2022-12-04T01:47:21.200Z,59.2
2022-12-04T01:49:28.083Z,57.2
2022-12-04T01:51:24.826Z,64.2
2022-12-04T01:53:20.364Z,61.2
2022-12-04T01:57:21.359Z,58.9
2022-12-04T01:59:21.616Z,61.4
2022-12-04T02:01:18.554Z,59.5
2022-12-04T02:03:17.287Z,60.7
2022-12-04T02:05:20.254Z,58.7
2022-12-04T02:09:17.033Z,58.2
2022-12-04T02:13:24.296Z,59.2
2022-12-04T02:15:21.683Z,63.0
2022-12-04T02:17:21.523Z,59.6
2022-12-04T02:19:32.703Z,56.5
2022-12-04T02:21:20.718Z,58.3
2022-12-04T02:23:27.708Z,59.3
2022-12-04T02:25:23.342Z,61.4
2022-12-04T02:27:24.920Z,60.0
2022-12-04T02:29:19.973Z,57.4
2022-12-04T02:33:18.518Z,58.9
2022-12-04T02:39:17.301Z,60.3
2022-12-04T02:41:13.640Z,64.6
2022-12-04T02:43:12.176Z,60.7
2022-12-04T02:45:10.445Z,64.1
2022-12-04T02:47:11.635Z,61.7
2022-12-04T02:49:10.474Z,58.4
2022-12-04T02:51:09.884Z,64.9
2022-12-04T02:53:08.384Z,59.8
2022-12-04T02:55:08.991Z,60.6
2022-12-04T02:57:07.780Z,60.0
2022-12-04T02:59:07.563Z,62.3
2022-12-04T03:01:18.061Z,64.0
2022-12-04T03:03:08.046Z,63.9
2022-12-04T03:05:07.321Z,62.9
2022-12-04T03:09:07.598Z,57.7
2022-12-04T03:11:00.921Z,59.9
2022-12-04T03:13:05.571Z,57.9
2022-12-04T03:15:03.906Z,60.4
2022-12-04T03:17:03.233Z,61.4
2022-12-04T03:21:03.220Z,58.7
2022-12-04T03:23:02.307Z,57.5
2022-12-04T03:24:56.878Z,58.4
2022-12-04T03:27:03.122Z,63.3
2022-12-04T03:29:00.443Z,59.9
2022-12-04T03:31:02.613Z,61.3
2022-12-04T03:32:57.718Z,64.4
2022-12-04T03:34:58.570Z,62.1
2022-12-04T03:36:58.164Z,60.7
2022-12-04T03:38:58.392Z,60.4
2022-12-04T03:40:58.870Z,59.3
2022-12-04T03:42:58.383Z,57.0
2022-12-04T03:45:00.593Z,57.2
2022-12-04T03:46:57.136Z,56.3
2022-12-04T03:48:55.400Z,57.7
2022-12-04T03:50:57.527Z,59.7
2022-12-04T03:52:57.618Z,55.5
2022-12-04T03:54:53.613Z,57.6
2022-12-04T03:56:52.327Z,54.3
2022-12-04T03:58:52.253Z,54.0
2022-12-04T04:00:53.308Z,55.5
2022-12-04T04:02:51.496Z,55.5
2022-12-04T04:04:50.841Z,55.4
2022-12-04T04:06:50.625Z,54.1
2022-12-04T04:08:49.666Z,57.9
2022-12-04T04:10:45.146Z,51.2
2022-12-04T04:12:59.859Z,53.3
2022-12-04T04:14:59.325Z,54.9
2022-12-04T04:16:57.035Z,53.2
2022-12-04T04:18:53.603Z,59.9
2022-12-04T04:20:55.173Z,53.3
2022-12-04T04:22:56.014Z,56.7
2022-12-04T04:24:44.702Z,54.0
2022-12-04T04:26:43.597Z,55.4
2022-12-04T04:28:42.069Z,54.3
2022-12-04T04:30:40.098Z,58.0
2022-12-04T04:32:44.803Z,55.9
2022-12-04T04:34:48.125Z,55.9
2022-12-04T04:36:43.969Z,57.3
2022-12-04T04:38:43.632Z,53.7
2022-12-04T04:40:46.370Z,56.2
2022-12-04T04:42:41.294Z,55.9
2022-12-04T04:44:44.074Z,59.9
2022-12-04T04:46:40.719Z,56.6
2022-12-04T04:48:39.939Z,58.4
2022-12-04T04:50:36.331Z,59.5
2022-12-04T04:52:34.981Z,57.2
2022-12-04T04:54:36.362Z,61.2
2022-12-04T04:56:39.297Z,57.1
2022-12-04T04:58:33.158Z,60.1
2022-12-04T05:02:33.147Z,56.7
2022-12-04T05:04:31.155Z,59.7
2022-12-04T05:06:30.800Z,56.8
2022-12-04T05:08:30.143Z,56.3
2022-12-04T05:10:29.728Z,62.3
2022-12-04T05:12:29.175Z,58.3
2022-12-04T05:14:29.039Z,63.8
2022-12-04T05:16:28.666Z,60.8
2022-12-04T05:18:28.538Z,61.2
2022-12-04T05:20:27.379Z,58.9
2022-12-04T05:22:30.544Z,63.5
2022-12-04T05:24:26.150Z,58.3
2022-12-04T05:26:26.018Z,63.4
2022-12-04T05:28:25.307Z,60.1
2022-12-04T05:30:24.707Z,61.1
2022-12-04T05:32:27.177Z,61.5
2022-12-04T05:34:24.175Z,60.7
2022-12-04T05:38:22.776Z,61.3
2022-12-04T05:40:22.275Z,59.3
2022-12-04T05:42:21.874Z,58.4
2022-12-04T05:44:21.285Z,60.7
2022-12-04T05:46:20.904Z,60.4
2022-12-04T05:48:20.367Z,59.9
2022-12-04T05:52:19.671Z,64.7
2022-12-04T05:54:19.168Z,62.1
2022-12-04T05:56:18.322Z,62.0
2022-12-04T05:58:17.732Z,58.3
2022-12-04T06:00:17.865Z,60.9
2022-12-04T06:02:16.959Z,61.3
2022-12-04T06:04:16.419Z,61.9
2022-12-04T06:06:21.707Z,62.5
2022-12-04T06:08:15.298Z,62.0
2022-12-04T06:10:14.923Z,61.6
2022-12-04T06:12:14.634Z,64.2
2022-12-04T06:14:15.384Z,61.6
2022-12-04T06:16:14.711Z,59.9
2022-12-04T06:18:12.862Z,60.6
2022-12-04T06:20:12.798Z,56.7
2022-12-04T06:22:11.580Z,63.2
2022-12-04T06:24:14.734Z,65.2
2022-12-04T06:26:11.302Z,61.2
2022-12-04T06:28:10.339Z,62.1
2022-12-04T06:30:10.410Z,62.3
2022-12-04T06:32:09.573Z,63.6
2022-12-04T06:34:10.477Z,62.1
2022-12-04T06:36:10.967Z,65.5
2022-12-04T06:38:07.617Z,62.4
2022-12-04T06:40:08.361Z,62.5
2022-12-04T06:42:06.622Z,58.4
2022-12-04T06:44:06.228Z,57.5
2022-12-04T06:46:09.796Z,57.6
2022-12-04T06:48:05.675Z,57.8
2022-12-04T06:50:06.675Z,60.6
2022-12-04T06:52:04.192Z,59.5
2022-12-04T06:54:03.838Z,58.6
2022-12-04T06:56:05.728Z,63.2
2022-12-04T06:58:02.755Z,56.6
2022-12-04T07:00:03.521Z,60.8
2022-12-04T07:02:01.741Z,60.0
2022-12-04T07:04:03.193Z,58.5
2022-12-04T07:06:11.138Z,61.8
2022-12-04T07:08:00.312Z,54.8
2022-12-04T07:09:59.628Z,59.9
2022-12-04T07:11:59.134Z,62.0
2022-12-04T07:13:59.116Z,57.8
2022-12-04T07:15:59.351Z,64.2
2022-12-04T07:17:57.652Z,63.5
2022-12-04T07:19:57.441Z,62.9
2022-12-04T07:21:56.738Z,59.8
2022-12-04T07:23:58.291Z,64.4
2022-12-04T07:25:55.874Z,62.2
2022-12-04T07:27:55.934Z,61.6
2022-12-04T07:29:54.993Z,57.4
2022-12-04T07:33:54.467Z,61.4
2022-12-04T07:35:55.673Z,59.2
2022-12-04T07:37:52.705Z,65.4
2022-12-04T07:39:52.921Z,57.2
2022-12-04T07:43:51.661Z,62.7
2022-12-04T07:45:51.050Z,62.5
2022-12-04T07:47:50.216Z,57.8
2022-12-04T07:49:49.741Z,58.3
2022-12-04T07:51:49.674Z,60.0
2022-12-04T07:53:50.421Z,61.8
2022-12-04T07:55:51.199Z,60.1
2022-12-04T07:57:47.716Z,58.1
2022-12-04T08:01:47.531Z,60.9
2022-12-04T08:03:49.059Z,63.8
2022-12-04T08:07:45.379Z,62.5
2022-12-04T08:09:44.755Z,61.5
2022-12-04T08:11:44.309Z,59.1
2022-12-04T08:13:44.043Z,60.0
2022-12-04T08:15:43.751Z,64.0
2022-12-04T08:17:42.861Z,59.8
2022-12-04T08:19:42.474Z,58.4
2022-12-04T08:21:42.293Z,65.7
2022-12-04T08:23:43.731Z,60.5
2022-12-04T08:25:40.989Z,63.7
2022-12-04T08:27:47.494Z,59.9
2022-12-04T08:29:39.865Z,58.3
2022-12-04T08:31:39.729Z,57.1
2022-12-04T08:33:40.206Z,62.1
2022-12-04T08:37:38.008Z,62.5
2022-12-04T08:39:38.025Z,63.7
2022-12-04T08:41:37.349Z,63.2
2022-12-04T08:43:36.402Z,60.5
2022-12-04T08:45:36.009Z,64.7
2022-12-04T08:47:35.425Z,59.9
2022-12-04T08:49:34.904Z,58.3
2022-12-04T08:51:34.986Z,61.5
2022-12-04T08:53:35.554Z,57.6
2022-12-04T08:55:34.588Z,56.5
2022-12-04T08:57:33.462Z,57.4
2022-12-04T08:59:33.208Z,57.6
2022-12-04T09:01:32.000Z,57.0
2022-12-04T09:03:31.644Z,54.8
2022-12-04T09:05:31.013Z,56.0
2022-12-04T09:07:30.490Z,54.1
2022-12-04T09:09:30.143Z,53.9
2022-12-04T09:11:31.517Z,54.3
2022-12-04T09:13:29.178Z,53.7
2022-12-04T09:15:29.058Z,51.5
2022-12-04T09:17:28.416Z,53.5
2022-12-04T09:19:27.485Z,53.5
2022-12-04T09:21:27.047Z,53.6
2022-12-04T09:23:27.333Z,52.8
2022-12-04T09:25:25.986Z,49.4
2022-12-04T09:27:25.512Z,51.0
2022-12-04T09:29:25.364Z,51.8
2022-12-04T09:31:24.779Z,52.5
2022-12-04T09:33:24.239Z,52.6
2022-12-04T09:35:23.988Z,50.8
2022-12-04T09:37:23.210Z,49.6
2022-12-04T09:39:22.504Z,49.8
2022-12-04T09:41:38.927Z,48.3
2022-12-04T09:43:30.392Z,52.2
2022-12-04T09:45:24.538Z,50.1
2022-12-04T09:47:23.952Z,52.3
2022-12-04T09:49:26.875Z,46.8
2022-12-04T09:51:22.328Z,50.4
2022-12-04T09:53:26.058Z,49.8
2022-12-04T09:55:24.983Z,50.8
2022-12-04T09:57:24.601Z,51.0
2022-12-04T09:59:21.520Z,47.0
2022-12-04T10:01:22.936Z,48.9
2022-12-04T10:03:18.428Z,46.5
2022-12-04T10:05:20.639Z,45.2
2022-12-04T10:07:21.904Z,46.1
2022-12-04T10:09:21.308Z,46.9
2022-12-04T10:11:25.497Z,42.4
2022-12-04T10:13:33.877Z,45.4
2022-12-04T10:15:24.364Z,45.3
2022-12-04T10:17:32.376Z,42.8
2022-12-04T10:19:25.117Z,43.3
2022-12-04T10:21:24.056Z,36.5
2022-12-04T10:23:18.068Z,35.1
2022-12-04T10:25:17.780Z,35.6
2022-12-04T10:27:18.403Z,32.1
2022-12-04T10:29:18.292Z,38.4
2022-12-04T10:31:14.062Z,33.3
2022-12-04T10:33:17.006Z,35.0
2022-12-04T10:35:20.190Z,36.1
2022-12-04T10:37:12.346Z,32.3
2022-12-04T10:39:18.013Z,35.5
2022-12-04T10:41:15.474Z,34.7
2022-12-04T10:43:20.023Z,35.0
2022-12-04T10:45:06.643Z,33.7
2022-12-04T10:47:06.062Z,36.6
2022-12-04T10:49:15.977Z,35.3
2022-12-04T10:51:05.282Z,35.1
2022-12-04T10:53:07.168Z,34.8
2022-12-04T10:55:04.048Z,32.1
2022-12-04T10:57:05.337Z,35.5
2022-12-04T11:01:05.281Z,35.5
2022-12-04T11:03:07.730Z,33.7
2022-12-04T11:05:04.311Z,35.6
2022-12-04T11:07:03.705Z,32.5
2022-12-04T11:09:02.886Z,31.0
2022-12-04T11:11:01.993Z,31.3
2022-12-04T11:13:02.066Z,30.3
2022-12-04T11:15:00.862Z,31.3
2022-12-04T11:17:02.832Z,32.6
2022-12-04T11:18:57.561Z,32.1
2022-12-04T11:21:00.562Z,32.5
2022-12-04T11:22:58.620Z,34.2
2022-12-04T11:24:58.570Z,31.6
2022-12-04T11:26:56.716Z,32.5
2022-12-04T11:29:00.525Z,33.0
2022-12-04T11:30:57.671Z,32.3
2022-12-04T11:32:55.313Z,34.5
2022-12-04T11:34:57.118Z,37.0
2022-12-04T11:36:56.239Z,33.9
2022-12-04T11:39:03.651Z,36.0
2022-12-04T11:40:55.694Z,33.9
2022-12-04T11:43:02.890Z,31.8
2022-12-04T11:44:54.459Z,32.1
2022-12-04T11:46:52.803Z,31.5
2022-12-04T11:48:51.792Z,32.2
2022-12-04T11:50:56.976Z,33.8
2022-12-04T11:53:03.657Z,33.2
2022-12-04T11:56:57.983Z,32.0
2022-12-04T11:59:04.794Z,30.4
2022-12-04T12:00:58.718Z,30.7
2022-12-04T12:05:01.945Z,29.8
2022-12-04T12:07:02.353Z,32.8
2022-12-04T12:09:01.214Z,28.6
2022-12-04T12:10:57.341Z,27.6
2022-12-04T12:12:56.173Z,27.9
2022-12-04T12:14:58.879Z,29.0
2022-12-04T12:16:56.321Z,29.9
2022-12-04T12:18:57.319Z,30.2
2022-12-04T12:20:49.409Z,26.5
2022-12-04T12:23:02.036Z,34.1
2022-12-04T12:24:52.323Z,27.9
2022-12-04T12:26:47.127Z,28.6
2022-12-04T12:28:58.186Z,28.0
2022-12-04T12:30:55.511Z,28.6
2022-12-04T12:32:57.625Z,27.8
2022-12-04T12:34:41.743Z,25.4
2022-12-04T12:36:44.082Z,26.5
2022-12-04T12:38:44.816Z,26.3
2022-12-04T12:40:41.916Z,24.3
2022-12-04T12:42:47.712Z,22.9
2022-12-04T12:44:47.704Z,24.1
2022-12-04T12:46:40.434Z,24.2
2022-12-04T12:48:42.337Z,27.3
2022-12-04T12:50:42.739Z,23.9
2022-12-04T12:52:40.282Z,26.1
2022-12-04T12:54:43.246Z,22.6
2022-12-04T12:56:43.348Z,24.8
2022-12-04T12:58:37.490Z,23.8
2022-12-04T13:00:41.625Z,23.3
2022-12-04T13:02:37.800Z,23.7
2022-12-04T13:04:36.865Z,23.5
2022-12-04T13:06:38.162Z,23.1
2022-12-04T13:08:36.354Z,24.4
2022-12-04T13:10:36.035Z,25.6
2022-12-04T13:12:41.483Z,23.9
2022-12-04T13:14:29.066Z,27.5
2022-12-04T13:16:35.805Z,23.9
2022-12-04T13:18:33.666Z,24.1
2022-12-04T13:20:34.127Z,24.3
2022-12-04T13:22:34.470Z,23.7
2022-12-04T13:24:40.770Z,22.1
2022-12-04T13:26:38.895Z,26.1
2022-12-04T13:30:36.264Z,23.9
2022-12-04T13:32:44.174Z,28.0
2022-12-04T13:34:43.478Z,23.0
2022-12-04T13:36:35.208Z,23.3
2022-12-04T13:38:31.467Z,24.2
2022-12-04T13:40:33.232Z,26.6
2022-12-04T13:42:24.372Z,25.9
2022-12-04T13:44:24.591Z,24.6
2022-12-04T13:46:26.099Z,24.7
2022-12-04T13:48:32.194Z,24.6
2022-12-04T13:50:28.684Z,26.2
2022-12-04T13:52:23.043Z,23.8
2022-12-04T13:54:24.338Z,26.0
2022-12-04T13:56:25.810Z,24.3
2022-12-04T13:58:26.436Z,26.7
2022-12-04T14:00:26.251Z,24.5
2022-12-04T14:02:24.033Z,25.8
2022-12-04T14:04:27.187Z,27.8
2022-12-04T14:06:21.810Z,23.6
2022-12-04T14:08:23.474Z,25.4
2022-12-04T14:10:26.720Z,24.3
2022-12-04T14:12:17.258Z,26.4
2022-12-04T14:14:23.659Z,23.7
2022-12-04T14:16:20.254Z,26.0
2022-12-04T14:18:19.925Z,27.2
2022-12-04T14:22:25.268Z,26.4
2022-12-04T14:24:16.348Z,27.1
2022-12-04T14:26:19.962Z,26.9
2022-12-04T14:28:22.305Z,27.1
2022-12-04T14:30:17.287Z,26.8
2022-12-04T14:32:15.496Z,24.9
2022-12-04T14:34:21.404Z,27.7
2022-12-04T14:36:17.969Z,27.0
2022-12-04T14:38:17.097Z,26.9
2022-12-04T14:40:18.867Z,28.4
2022-12-04T14:42:13.686Z,29.0
2022-12-04T14:44:16.760Z,27.2
2022-12-04T14:46:15.776Z,28.4
2022-12-04T14:48:21.047Z,26.9
2022-12-04T14:50:20.209Z,28.6
2022-12-04T14:52:12.247Z,26.6
2022-12-04T14:54:17.367Z,25.8
2022-12-04T14:56:17.825Z,27.0
2022-12-04T14:58:20.649Z,26.6
2022-12-04T15:00:04.576Z,28.5
2022-12-04T15:02:03.952Z,28.7
2022-12-04T15:04:16.677Z,27.7
2022-12-04T15:06:04.563Z,28.2
2022-12-04T15:08:04.737Z,28.4
2022-12-04T15:10:12.211Z,29.6
2022-12-04T15:12:10.532Z,30.2
2022-12-04T15:14:04.127Z,26.9
2022-12-04T15:16:07.801Z,28.6
2022-12-04T15:18:02.053Z,31.9
2022-12-04T15:20:06.642Z,28.6
2022-12-04T15:21:57.490Z,29.1
2022-12-04T15:25:59.761Z,29.0
2022-12-04T15:28:03.201Z,29.4
2022-12-04T15:29:57.214Z,29.1
2022-12-04T15:31:59.251Z,31.0
2022-12-04T15:33:56.436Z,29.6
2022-12-04T15:37:54.491Z,28.2
2022-12-04T15:39:54.467Z,31.3
2022-12-04T15:42:04.359Z,31.3
2022-12-04T15:43:52.257Z,31.2
2022-12-04T15:45:53.365Z,28.4
2022-12-04T15:47:53.109Z,29.0
2022-12-04T15:49:51.300Z,28.9
2022-12-04T15:51:50.608Z,28.1
2022-12-04T15:53:49.894Z,30.3
2022-12-04T15:55:52.948Z,29.3
2022-12-04T15:59:50.750Z,29.2
2022-12-04T16:01:50.132Z,26.1
2022-12-04T16:03:50.093Z,26.8
2022-12-04T16:05:47.610Z,26.6
2022-12-04T16:07:49.309Z,25.5
2022-12-04T16:09:52.071Z,23.9
2022-12-04T16:11:45.633Z,27.4
2022-12-04T16:13:47.174Z,25.5
2022-12-04T16:15:45.016Z,24.7
2022-12-04T16:17:44.136Z,25.8
2022-12-04T16:19:43.846Z,25.0
2022-12-04T16:21:44.154Z,27.7
2022-12-04T16:23:44.531Z,26.4
2022-12-04T16:25:42.672Z,27.0
2022-12-04T16:27:42.422Z,28.9
2022-12-04T16:29:41.213Z,24.8
2022-12-04T16:31:40.867Z,28.4
2022-12-04T16:33:40.330Z,26.4
2022-12-04T16:35:39.997Z,32.4
2022-12-04T16:37:39.473Z,29.8
2022-12-04T16:39:41.373Z,30.8
2022-12-04T16:41:39.815Z,29.5
2022-12-04T16:43:38.186Z,28.3
2022-12-04T16:45:41.084Z,30.3
2022-12-04T16:47:37.045Z,28.8
2022-12-04T16:49:36.806Z,30.6
2022-12-04T16:51:36.655Z,26.7
2022-12-04T16:53:35.531Z,26.6
2022-12-04T16:55:38.223Z,26.7
2022-12-04T16:57:34.585Z,32.6
2022-12-04T16:59:34.641Z,27.5
2022-12-04T17:01:37.641Z,29.4
2022-12-04T17:03:34.071Z,29.6
2022-12-04T17:05:34.766Z,28.0
2022-12-04T17:07:32.244Z,26.1
2022-12-04T17:09:31.678Z,26.8
2022-12-04T17:11:31.284Z,27.2
2022-12-04T17:13:31.002Z,27.5
2022-12-04T17:15:30.378Z,27.3
2022-12-04T17:17:29.762Z,26.8
2022-12-04T17:19:30.290Z,28.4
2022-12-04T17:21:29.107Z,27.8
2022-12-04T17:23:28.403Z,25.9
2022-12-04T17:25:27.858Z,27.3
2022-12-04T17:27:27.342Z,26.4
2022-12-04T17:29:26.785Z,28.4
2022-12-04T17:31:26.956Z,26.4
2022-12-04T17:33:26.106Z,28.4
2022-12-04T17:35:25.521Z,29.7
2022-12-04T17:37:25.036Z,32.1
2022-12-04T17:39:24.619Z,31.6
2022-12-04T17:41:24.515Z,30.1
2022-12-04T17:43:23.405Z,30.5
2022-12-04T17:45:22.867Z,32.0
2022-12-04T17:47:22.492Z,33.9
2022-12-04T17:49:21.998Z,33.6
2022-12-04T17:51:23.416Z,35.2
2022-12-04T17:53:20.886Z,32.7
2022-12-04T17:55:20.584Z,36.4
2022-12-04T17:57:21.359Z,37.7
2022-12-04T17:59:20.173Z,37.0
2022-12-04T18:01:21.421Z,35.4
2022-12-04T18:03:18.611Z,38.1
2022-12-04T18:05:18.040Z,38.4
2022-12-04T18:07:17.465Z,39.2
2022-12-04T18:09:17.240Z,39.0
2022-12-04T18:11:19.568Z,35.9
2022-12-04T18:13:16.160Z,37.9
2022-12-04T18:15:15.703Z,41.2
2022-12-04T18:17:16.710Z,39.8
2022-12-04T18:19:15.189Z,39.0
2022-12-04T18:21:14.792Z,41.3
2022-12-04T18:23:13.706Z,37.5
2022-12-04T18:25:14.016Z,39.6
2022-12-04T18:27:12.822Z,37.3
2022-12-04T18:29:15.275Z,39.6
2022-12-04T18:31:13.712Z,40.4
2022-12-04T18:33:14.846Z,42.6
2022-12-04T18:35:10.875Z,42.0
2022-12-04T18:37:10.776Z,41.8
2022-12-04T18:39:12.765Z,42.9
2022-12-04T18:45:09.764Z,43.4
2022-12-04T18:47:07.962Z,41.8
2022-12-04T18:49:09.085Z,44.4
2022-12-04T18:51:13.329Z,41.7
2022-12-04T18:53:06.769Z,43.6
2022-12-04T18:55:06.752Z,41.6
2022-12-04T18:57:07.321Z,41.2
2022-12-04T18:59:07.521Z,40.7
2022-12-04T19:01:06.084Z,45.4
2022-12-04T19:03:05.112Z,42.1
2022-12-04T19:05:04.028Z,42.7
2022-12-04T19:07:04.004Z,43.2
2022-12-04T19:09:05.337Z,45.8
2022-12-04T19:11:05.457Z,43.6
2022-12-04T19:13:01.842Z,42.3
2022-12-04T19:15:01.649Z,46.0
2022-12-04T19:17:01.678Z,43.1
2022-12-04T19:19:01.041Z,44.8
2022-12-04T19:20:59.889Z,43.7
2022-12-04T19:22:59.371Z,42.2
2022-12-04T19:24:59.104Z,44.0
2022-12-04T19:26:58.383Z,45.3
2022-12-04T19:28:58.749Z,43.5
2022-12-04T19:30:57.547Z,46.0
2022-12-04T19:32:57.063Z,46.7
2022-12-04T19:34:56.809Z,44.0
2022-12-04T19:36:56.952Z,44.9
2022-12-04T19:38:56.651Z,49.6
2022-12-04T19:41:05.362Z,45.3
2022-12-04T19:42:59.522Z,47.5
2022-12-04T19:44:54.094Z,46.0
2022-12-04T19:46:53.660Z,49.4
2022-12-04T19:48:56.140Z,46.8
2022-12-04T19:50:52.833Z,44.1
2022-12-04T19:52:52.455Z,51.4
2022-12-04T19:54:52.496Z,46.0
2022-12-04T19:56:51.661Z,46.9
2022-12-04T19:58:52.145Z,48.1
2022-12-04T20:00:54.448Z,47.8
2022-12-04T20:02:49.846Z,47.0
2022-12-04T20:04:49.429Z,50.7
2022-12-04T20:06:48.930Z,48.8
2022-12-04T20:08:54.061Z,48.5
2022-12-04T20:10:47.953Z,49.6
2022-12-04T20:14:47.685Z,45.8
2022-12-04T20:16:47.428Z,51.2
2022-12-04T20:18:46.126Z,49.9
2022-12-04T20:20:53.941Z,47.4
2022-12-04T20:22:45.241Z,47.5
2022-12-04T20:24:44.819Z,48.3
2022-12-04T20:26:45.384Z,51.5
2022-12-04T20:28:44.952Z,51.0
2022-12-04T20:30:43.987Z,53.4
2022-12-04T20:32:43.027Z,52.5
2022-12-04T20:34:43.991Z,53.0
2022-12-04T20:36:43.807Z,49.8
2022-12-04T20:38:41.956Z,56.4
2022-12-04T20:40:41.464Z,53.4
2022-12-04T20:42:40.807Z,51.8
2022-12-04T20:44:40.298Z,56.7
2022-12-04T20:46:41.548Z,53.6
2022-12-04T20:48:45.547Z,56.6
2022-12-04T20:50:44.244Z,55.2
2022-12-04T20:52:38.638Z,58.9
2022-12-04T20:54:41.581Z,56.5
2022-12-04T20:56:38.352Z,59.1
2022-12-04T21:00:36.563Z,57.8
2022-12-04T21:04:36.857Z,60.1
2022-12-04T21:06:38.751Z,64.1
2022-12-04T21:08:44.414Z,72.9
2022-12-04T21:10:34.289Z,65.3
2022-12-04T21:12:43.875Z,66.9
2022-12-04T21:14:43.290Z,68.8
2022-12-04T21:16:33.821Z,62.3
2022-12-04T21:18:32.339Z,65.9
2022-12-04T21:20:31.959Z,64.4
2022-12-04T21:22:31.447Z,65.8
2022-12-04T21:24:35.457Z,65.2
2022-12-04T21:26:30.847Z,65.6
2022-12-04T21:28:30.343Z,68.4
2022-12-04T21:30:29.787Z,69.4
2022-12-04T21:32:29.539Z,66.3
2022-12-04T21:34:28.944Z,64.7
2022-12-04T21:36:28.753Z,69.5
2022-12-04T21:38:28.036Z,70.4
2022-12-04T21:40:27.570Z,71.5
2022-12-04T21:42:30.033Z,70.0
2022-12-04T21:44:26.732Z,68.4
2022-12-04T21:46:26.074Z,70.5
2022-12-04T21:48:25.887Z,73.8
2022-12-04T21:50:25.032Z,73.4
2022-12-04T21:52:25.229Z,64.1
2022-12-04T21:54:24.893Z,63.8
2022-12-04T21:56:24.932Z,75.0
2022-12-04T21:58:25.007Z,73.3
2022-12-04T22:00:22.843Z,74.4
2022-12-04T22:02:23.785Z,69.5
2022-12-04T22:04:22.669Z,69.3
2022-12-04T22:06:21.479Z,71.5
2022-12-04T22:08:20.866Z,73.3
2022-12-04T22:10:20.433Z,77.8
2022-12-04T22:12:47.836Z,68.7
2022-12-04T22:14:19.720Z,77.0
2022-12-04T22:16:19.217Z,84.3
2022-12-04T22:18:18.474Z,77.1
2022-12-04T22:20:18.057Z,80.1
2022-12-04T22:22:17.520Z,71.9
2022-12-04T22:24:17.257Z,80.8
2022-12-04T22:26:18.469Z,80.2
2022-12-04T22:28:16.413Z,79.1
2022-12-04T22:30:15.782Z,76.8
2022-12-04T22:32:15.568Z,73.7
2022-12-04T22:34:14.939Z,76.5
2022-12-04T22:36:19.298Z,72.2
2022-12-04T22:38:13.865Z,79.8
2022-12-04T22:40:15.082Z,70.2
2022-12-04T22:42:12.778Z,69.5
2022-12-04T22:44:12.320Z,72.2
2022-12-04T22:46:13.150Z,72.5
2022-12-04T22:48:11.353Z,72.9
2022-12-04T22:50:11.063Z,73.0
2022-12-04T22:52:11.109Z,78.2
2022-12-04T22:54:13.090Z,78.7
2022-12-04T22:56:12.030Z,80.0
2022-12-04T22:58:09.041Z,76.7
2022-12-04T23:00:09.347Z,78.8
2022-12-04T23:02:08.412Z,79.2
2022-12-04T23:04:09.139Z,82.8
2022-12-04T23:06:08.658Z,82.1
2022-12-04T23:08:07.154Z,86.0
2022-12-04T23:10:07.509Z,89.4
2022-12-04T23:12:06.363Z,85.3
2022-12-04T23:14:07.471Z,87.0
2022-12-04T23:16:09.271Z,83.0
2022-12-04T23:18:04.846Z,82.6
2022-12-04T23:20:04.466Z,80.6
2022-12-04T23:22:03.313Z,78.0
2022-12-04T23:24:03.355Z,80.8
2022-12-04T23:26:02.848Z,87.6
2022-12-04T23:28:02.732Z,85.5
2022-12-04T23:30:01.907Z,84.9
2022-12-04T23:32:01.067Z,85.2
2022-12-04T23:34:02.080Z,84.3
2022-12-04T23:36:02.680Z,81.4
2022-12-04T23:37:59.396Z,75.2
2022-12-04T23:39:59.537Z,78.7
2022-12-04T23:41:58.461Z,80.3
2022-12-04T23:43:58.098Z,80.8
2022-12-04T23:45:57.633Z,83.7
2022-12-04T23:47:57.597Z,74.4
2022-12-04T23:49:57.422Z,79.2
2022-12-04T23:51:56.144Z,74.6
2022-12-04T23:53:56.091Z,80.6
2022-12-04T23:55:56.083Z,78.3
2022-12-04T23:57:54.926Z,76.0
2022-12-04T23:59:54.199Z,77.9
